Time;durP1;ratioP1;P1;durP2;ratioP2;P2;SDS_P1;SDS_P2;PMS_P1;PMS_P2;Temp;Humidity;BMP_temperature;BMP_pressure;BME280_temperature;BME280_humidity;BME280_pressure;Samples;Min_cycle;Max_cycle;Signal;HPM_P1;HPM_P2
2021/07/04 00:00:38;;;;;;;0.70;0.70;;;18.50;83.10;;;;;;5108719;28;20031;-78
2021/07/04 00:03:04;;;;;;;0.50;0.50;;;18.50;83.20;;;;;;5063032;28;20097;-78
2021/07/04 00:05:35;;;;;;;0.75;0.75;;;18.50;83.20;;;;;;5059876;28;20067;-78
2021/07/04 00:08:01;;;;;;;0.57;0.57;;;18.40;83.20;;;;;;5076094;28;20040;-79
2021/07/04 00:10:31;;;;;;;0.60;0.60;;;18.50;83.20;;;;;;5094274;28;20036;-80
2021/07/04 00:12:58;;;;;;;0.90;0.90;;;18.50;83.30;;;;;;5075896;28;20035;-79
2021/07/04 00:15:26;;;;;;;0.63;0.60;;;18.50;83.30;;;;;;5105613;28;20036;-79
2021/07/04 00:17:52;;;;;;;0.75;0.75;;;18.50;83.40;;;;;;5083164;28;20028;-79
2021/07/04 00:20:20;;;;;;;0.50;0.50;;;18.40;83.30;;;;;;5086245;28;20047;-80
2021/07/04 00:22:47;;;;;;;1.02;0.80;;;18.50;83.50;;;;;;5079416;28;20066;-80
2021/07/04 00:25:14;;;;;;;0.75;0.60;;;18.40;83.60;;;;;;5081375;28;20044;-80
2021/07/04 00:27:40;;;;;;;1.08;0.80;;;18.30;83.60;;;;;;5044819;28;20478;-80
2021/07/04 00:30:10;;;;;;;0.93;0.80;;;18.30;83.70;;;;;;5077012;28;20488;-79
2021/07/04 00:32:37;;;;;;;0.75;0.73;;;18.40;83.80;;;;;;5041377;28;20493;-79
2021/07/04 00:35:04;;;;;;;0.90;0.70;;;18.30;83.70;;;;;;5057813;28;20036;-79
2021/07/04 00:37:29;;;;;;;0.77;0.52;;;18.30;83.80;;;;;;5072177;28;20097;-81
2021/07/04 00:39:55;;;;;;;0.80;0.57;;;18.30;83.80;;;;;;5044008;28;20040;-81
2021/07/04 00:42:20;;;;;;;0.70;0.70;;;18.30;83.80;;;;;;5076228;28;20127;-81
2021/07/04 00:44:46;;;;;;;0.68;0.60;;;18.30;83.80;;;;;;5094396;28;20040;-80
2021/07/04 00:47:12;;;;;;;0.55;0.55;;;18.30;83.80;;;;;;5074061;28;20040;-77
2021/07/04 00:49:38;;;;;;;0.63;0.57;;;18.30;83.80;;;;;;5074308;28;20066;-77
2021/07/04 00:52:04;;;;;;;0.65;0.65;;;18.30;83.80;;;;;;5074015;28;20043;-78
2021/07/04 00:54:29;;;;;;;0.80;0.80;;;18.40;83.90;;;;;;5074560;28;20074;-78
2021/07/04 00:56:55;;;;;;;0.82;0.63;;;18.40;83.90;;;;;;5073753;28;20185;-76
2021/07/04 00:59:21;;;;;;;0.60;0.60;;;18.30;84.00;;;;;;5091965;28;20048;-76
2021/07/04 01:01:47;;;;;;;0.73;0.60;;;18.30;83.90;;;;;;5073951;28;20878;-76
2021/07/04 01:04:13;;;;;;;0.52;0.52;;;18.30;84.00;;;;;;5092255;28;20312;-77
2021/07/04 01:06:41;;;;;;;0.85;0.68;;;18.30;84.00;;;;;;5092069;28;20046;-78
2021/07/04 01:09:07;;;;;;;0.85;0.55;;;18.40;84.10;;;;;;5092949;28;20127;-77
2021/07/04 01:11:33;;;;;;;0.32;0.32;;;18.30;84.00;;;;;;5090126;28;20044;-77
2021/07/04 01:14:00;;;;;;;0.50;0.50;;;18.30;84.00;;;;;;5093538;28;20131;-77
2021/07/04 01:16:25;;;;;;;0.32;0.32;;;18.30;84.10;;;;;;5058690;28;20120;-78
2021/07/04 01:18:51;;;;;;;0.45;0.45;;;18.40;84.10;;;;;;5100675;28;20490;-78
2021/07/04 01:21:19;;;;;;;0.70;0.52;;;18.40;84.20;;;;;;5098446;28;20115;-78
2021/07/04 01:23:45;;;;;;;0.50;0.50;;;18.30;84.10;;;;;;5075530;28;20052;-77
2021/07/04 01:26:11;;;;;;;0.57;0.40;;;18.40;84.20;;;;;;5096152;28;20035;-78
2021/07/04 01:28:37;;;;;;;0.40;0.40;;;18.40;84.20;;;;;;5095047;28;20046;-78
2021/07/04 01:31:03;;;;;;;0.50;0.50;;;18.40;84.20;;;;;;5077657;28;20060;-78
2021/07/04 01:33:30;;;;;;;0.82;0.60;;;18.40;84.20;;;;;;5077072;28;20484;-78
2021/07/04 01:35:56;;;;;;;0.70;0.60;;;18.30;84.20;;;;;;5095394;28;20040;-79
2021/07/04 01:38:21;;;;;;;0.50;0.40;;;18.30;84.20;;;;;;5095511;28;20040;-78
2021/07/04 01:40:47;;;;;;;0.50;0.50;;;18.30;84.30;;;;;;5077562;28;20028;-78
2021/07/04 01:43:13;;;;;;;0.70;0.70;;;18.40;84.40;;;;;;5094973;28;20044;-78
2021/07/04 01:45:40;;;;;;;0.50;0.50;;;18.30;84.30;;;;;;5094954;28;20449;-78
2021/07/04 01:48:07;;;;;;;0.68;0.60;;;18.30;84.30;;;;;;5077368;28;20120;-78
2021/07/04 01:50:37;;;;;;;0.43;0.43;;;18.30;84.40;;;;;;5077412;28;20130;-78
2021/07/04 01:53:03;;;;;;;0.40;0.40;;;18.30;84.40;;;;;;5077343;28;20036;-78
2021/07/04 01:55:29;;;;;;;0.47;0.47;;;18.30;84.40;;;;;;5077348;28;20043;-78
2021/07/04 01:57:56;;;;;;;0.43;0.43;;;18.30;84.40;;;;;;5077585;28;20047;-78
2021/07/04 02:00:26;;;;;;;0.40;0.40;;;18.30;84.50;;;;;;5077760;28;20032;-78
2021/07/04 02:02:54;;;;;;;0.35;0.35;;;18.30;84.40;;;;;;5077639;28;20086;-78
2021/07/04 02:05:20;;;;;;;0.60;0.60;;;18.30;84.50;;;;;;5075220;28;20036;-78
2021/07/04 02:07:46;;;;;;;0.50;0.50;;;18.30;84.40;;;;;;5094524;28;20036;-78
2021/07/04 02:10:16;;;;;;;0.50;0.50;;;18.30;84.50;;;;;;5094425;28;20042;-78
2021/07/04 02:12:42;;;;;;;0.50;0.50;;;18.30;84.50;;;;;;5075161;28;20051;-78
2021/07/04 02:15:18;;;;;;;0.55;0.55;;;18.30;84.60;;;;;;5077006;28;20048;-78
2021/07/04 02:17:44;;;;;;;0.50;0.50;;;18.30;84.50;;;;;;5095017;28;20040;-78
2021/07/04 02:20:30;;;;;;;0.50;0.50;;;18.40;84.60;;;;;;5096382;28;20040;-78
2021/07/04 02:22:56;;;;;;;0.40;0.40;;;18.30;84.60;;;;;;5060960;28;20430;-78
2021/07/04 02:25:22;;;;;;;0.55;0.55;;;18.30;84.50;;;;;;5076827;28;20047;-78
2021/07/04 02:27:47;;;;;;;0.45;0.45;;;18.30;84.60;;;;;;5076882;28;20044;-78
2021/07/04 02:30:13;;;;;;;0.70;0.55;;;18.30;84.60;;;;;;5076347;28;20392;-78
2021/07/04 02:32:39;;;;;;;0.57;0.57;;;18.30;84.60;;;;;;5042470;28;20094;-78
2021/07/04 02:35:06;;;;;;;0.60;0.60;;;18.30;84.60;;;;;;5076264;28;20087;-78
2021/07/04 02:37:31;;;;;;;0.55;0.55;;;18.20;84.60;;;;;;5094815;28;20068;-78
2021/07/04 02:39:57;;;;;;;0.50;0.50;;;18.20;85.30;;;;;;5076376;28;20063;-78
2021/07/04 02:42:23;;;;;;;0.40;0.40;;;18.30;84.80;;;;;;5059801;28;20043;-78
2021/07/04 02:44:48;;;;;;;0.50;0.50;;;18.20;84.80;;;;;;5094691;28;20048;-78
2021/07/04 02:47:14;;;;;;;0.60;0.60;;;18.20;84.80;;;;;;5060182;28;20554;-78
2021/07/04 02:49:39;;;;;;;0.60;0.60;;;18.20;84.90;;;;;;5077660;28;20474;-78
2021/07/04 02:52:05;;;;;;;0.60;0.60;;;18.30;84.90;;;;;;5077586;28;20042;-78
2021/07/04 02:54:31;;;;;;;0.50;0.50;;;18.30;84.90;;;;;;5060169;28;20138;-78
2021/07/04 02:56:56;;;;;;;0.63;0.57;;;18.30;85.00;;;;;;5076573;28;20047;-78
2021/07/04 02:59:22;;;;;;;0.55;0.50;;;18.30;84.90;;;;;;5042889;28;20402;-78
2021/07/04 03:01:47;;;;;;;0.68;0.68;;;18.30;85.00;;;;;;5094830;28;20378;-78
2021/07/04 03:04:13;;;;;;;0.65;0.65;;;18.20;84.90;;;;;;5076490;28;20044;-78
2021/07/04 03:06:38;;;;;;;0.63;0.63;;;18.30;85.00;;;;;;5077362;28;20067;-78
2021/07/04 03:09:04;;;;;;;0.50;0.50;;;18.20;85.00;;;;;;5077767;28;20050;-79
2021/07/04 03:11:30;;;;;;;0.50;0.50;;;18.30;85.00;;;;;;5060769;28;20405;-78
2021/07/04 03:13:56;;;;;;;0.50;0.50;;;18.30;85.00;;;;;;5061002;28;20036;-79
2021/07/04 03:16:21;;;;;;;0.60;0.60;;;18.30;85.00;;;;;;5061008;28;20047;-79
2021/07/04 03:18:47;;;;;;;0.50;0.50;;;18.30;85.10;;;;;;5077655;28;20370;-78
2021/07/04 03:21:12;;;;;;;0.65;0.50;;;18.30;85.10;;;;;;5060321;28;20127;-78
2021/07/04 03:23:38;;;;;;;0.40;0.40;;;18.30;85.10;;;;;;5060162;28;20040;-78
2021/07/04 03:26:04;;;;;;;0.60;0.60;;;18.20;85.10;;;;;;5077086;28;20520;-78
2021/07/04 03:28:29;;;;;;;0.60;0.60;;;18.30;85.30;;;;;;5076602;28;20082;-78
2021/07/04 03:30:55;;;;;;;0.50;0.50;;;18.30;85.30;;;;;;5077486;28;20035;-78
2021/07/04 03:33:20;;;;;;;0.40;0.40;;;18.30;85.30;;;;;;5076501;28;20405;-78
2021/07/04 03:35:46;;;;;;;0.68;0.60;;;18.20;85.20;;;;;;5058063;28;20381;-78
2021/07/04 03:38:12;;;;;;;0.73;0.70;;;18.20;85.20;;;;;;5095175;28;20055;-78
2021/07/04 03:40:38;;;;;;;0.40;0.40;;;18.30;85.30;;;;;;5076454;28;20040;-78
2021/07/04 03:43:04;;;;;;;0.60;0.60;;;18.30;85.30;;;;;;5076277;28;20044;-78
2021/07/04 03:45:29;;;;;;;0.57;0.57;;;18.30;85.30;;;;;;5059321;28;20040;-78
2021/07/04 03:47:55;;;;;;;0.50;0.50;;;18.30;85.30;;;;;;5076546;28;20534;-78
2021/07/04 03:50:20;;;;;;;0.55;0.55;;;18.20;85.30;;;;;;5094406;28;20036;-78
2021/07/04 03:52:48;;;;;;;0.63;0.57;;;18.30;85.40;;;;;;5076818;28;20567;-78
2021/07/04 03:55:14;;;;;;;0.47;0.47;;;18.30;85.40;;;;;;5095239;28;20047;-78
2021/07/04 03:57:40;;;;;;;0.60;0.60;;;18.30;85.40;;;;;;5060437;28;20517;-79
2021/07/04 04:00:07;;;;;;;0.82;0.80;;;18.20;85.40;;;;;;5094143;28;20062;-78
2021/07/04 04:02:33;;;;;;;0.60;0.50;;;18.30;85.50;;;;;;5094393;28;20119;-78
2021/07/04 04:04:59;;;;;;;0.40;0.40;;;18.30;85.50;;;;;;5094483;28;20074;-78
2021/07/04 04:07:26;;;;;;;0.50;0.50;;;18.30;85.50;;;;;;5059232;28;20040;-78
2021/07/04 04:09:52;;;;;;;0.60;0.60;;;18.30;85.50;;;;;;5075770;28;20074;-78
2021/07/04 04:12:19;;;;;;;0.70;0.63;;;18.30;85.50;;;;;;5075970;28;20482;-78
2021/07/04 04:14:45;;;;;;;0.47;0.47;;;18.30;85.60;;;;;;5075152;28;20090;-78
2021/07/04 04:17:11;;;;;;;0.63;0.60;;;18.30;85.50;;;;;;5074956;28;20048;-78
2021/07/04 04:19:36;;;;;;;0.70;0.70;;;18.30;85.50;;;;;;5057994;28;20040;-78
2021/07/04 04:22:02;;;;;;;0.80;0.80;;;18.40;85.60;;;;;;5074457;28;20036;-78
2021/07/04 04:24:28;;;;;;;0.82;0.70;;;18.30;85.50;;;;;;5074351;28;20048;-78
2021/07/04 04:26:53;;;;;;;0.75;0.75;;;18.40;85.60;;;;;;5074509;28;20452;-78
2021/07/04 04:29:19;;;;;;;1.02;0.80;;;18.30;85.60;;;;;;5074459;28;20040;-78
2021/07/04 04:31:46;;;;;;;0.60;0.60;;;18.40;85.70;;;;;;5057691;28;20135;-78
2021/07/04 04:34:12;;;;;;;0.77;0.70;;;18.30;85.60;;;;;;5074526;28;20051;-78
2021/07/04 04:36:38;;;;;;;0.70;0.70;;;18.50;85.70;;;;;;5074355;28;20056;-78
2021/07/04 04:39:05;;;;;;;0.70;0.70;;;18.40;85.60;;;;;;5074685;28;20032;-78
2021/07/04 04:41:33;;;;;;;0.80;0.80;;;18.40;85.60;;;;;;5074380;28;20040;-78
2021/07/04 04:43:59;;;;;;;0.82;0.82;;;18.40;85.70;;;;;;5092159;28;20066;-78
2021/07/04 04:46:26;;;;;;;0.80;0.75;;;18.40;85.70;;;;;;5074027;28;20044;-78
2021/07/04 04:48:51;;;;;;;1.00;0.90;;;18.40;85.70;;;;;;5074199;28;20032;-78
2021/07/04 04:51:17;;;;;;;0.70;0.70;;;18.40;85.80;;;;;;5092125;28;20398;-78
2021/07/04 04:53:43;;;;;;;0.70;0.70;;;18.40;85.80;;;;;;5057606;28;20047;-78
2021/07/04 04:56:08;;;;;;;1.00;0.90;;;18.50;85.80;;;;;;5057484;28;20047;-78
2021/07/04 04:58:34;;;;;;;1.10;1.00;;;18.60;85.80;;;;;;5096214;28;20044;-78
2021/07/04 05:00:59;;;;;;;0.90;0.63;;;18.50;85.80;;;;;;5096236;28;20119;-78
2021/07/04 05:03:25;;;;;;;1.05;0.90;;;18.40;85.70;;;;;;5078138;28;20047;-78
2021/07/04 05:05:50;;;;;;;1.00;0.73;;;18.50;85.80;;;;;;5077848;28;20135;-78
2021/07/04 05:08:16;;;;;;;1.00;0.80;;;18.50;85.80;;;;;;5096047;28;20085;-78
2021/07/04 05:10:42;;;;;;;1.60;1.20;;;18.60;85.80;;;;;;5060766;28;20047;-78
2021/07/04 05:13:07;;;;;;;1.30;0.80;;;18.60;85.80;;;;;;5077234;28;20134;-78
2021/07/04 05:15:33;;;;;;;1.20;1.10;;;18.60;85.80;;;;;;5060642;28;20127;-78
2021/07/04 05:18:02;;;;;;;1.45;1.10;;;18.50;85.80;;;;;;5077282;28;20064;-78
2021/07/04 05:20:28;;;;;;;1.17;1.05;;;18.50;85.90;;;;;;5094022;28;20416;-78
2021/07/04 05:22:53;;;;;;;1.10;1.00;;;18.60;85.90;;;;;;5077735;28;20040;-78
2021/07/04 05:25:19;;;;;;;1.48;1.17;;;18.50;85.80;;;;;;5077379;28;20405;-78
2021/07/04 05:27:45;;;;;;;1.80;1.30;;;18.60;85.90;;;;;;5058577;28;20393;-78
2021/07/04 05:30:11;;;;;;;1.27;1.02;;;18.60;85.80;;;;;;5077426;28;20044;-78
2021/07/04 05:32:37;;;;;;;1.13;1.02;;;18.60;85.80;;;;;;5044166;28;20113;-78
2021/07/04 05:35:03;;;;;;;1.27;1.00;;;18.70;85.80;;;;;;5095646;28;20043;-78
2021/07/04 05:37:29;;;;;;;1.60;1.30;;;18.70;85.60;;;;;;5043950;28;20051;-78
2021/07/04 05:39:58;;;;;;;2.03;1.48;;;18.80;85.70;;;;;;5060757;28;20485;-78
2021/07/04 05:42:23;;;;;;;2.28;1.50;;;18.80;85.60;;;;;;5059650;28;20037;-77
2021/07/04 05:44:49;;;;;;;1.75;1.27;;;18.70;85.60;;;;;;5095493;28;20115;-78
2021/07/04 05:47:14;;;;;;;2.03;1.40;;;18.70;85.80;;;;;;5077466;28;20094;-77
2021/07/04 05:49:40;;;;;;;1.90;1.20;;;18.60;85.90;;;;;;5096133;28;20440;-77
2021/07/04 05:52:06;;;;;;;1.92;1.30;;;18.70;86.00;;;;;;5078344;28;20044;-77
2021/07/04 05:54:31;;;;;;;3.17;1.30;;;18.70;86.00;;;;;;5060655;28;20048;-77
2021/07/04 05:56:57;;;;;;;2.50;1.40;;;18.80;86.10;;;;;;5095406;28;20468;-77
2021/07/04 05:59:23;;;;;;;1.20;1.10;;;18.70;85.90;;;;;;5060991;28;20035;-77
2021/07/04 06:01:48;;;;;;;2.05;1.25;;;18.80;86.00;;;;;;5077988;28;20036;-77
2021/07/04 06:04:14;;;;;;;2.00;1.48;;;18.90;85.90;;;;;;5096093;28;20486;-77
2021/07/04 06:06:39;;;;;;;2.88;1.60;;;18.90;85.90;;;;;;5076434;28;20116;-77
2021/07/04 06:09:05;;;;;;;2.55;1.77;;;18.90;85.90;;;;;;5077700;28;20089;-78
2021/07/04 06:11:30;;;;;;;2.03;1.50;;;19.00;85.80;;;;;;5095736;28;20054;-77
2021/07/04 06:13:56;;;;;;;2.40;1.40;;;19.00;85.80;;;;;;5094826;28;21023;-78
2021/07/04 06:16:22;;;;;;;1.90;1.50;;;19.00;85.80;;;;;;5076416;28;20043;-78
2021/07/04 06:18:47;;;;;;;2.55;1.52;;;19.00;85.70;;;;;;5076432;28;20040;-78
2021/07/04 06:21:13;;;;;;;2.85;1.58;;;19.10;85.70;;;;;;5076058;28;20513;-78
2021/07/04 06:23:39;;;;;;;1.90;1.30;;;19.10;85.70;;;;;;5076125;28;20047;-78
2021/07/04 06:26:04;;;;;;;2.67;1.55;;;19.20;85.70;;;;;;5076071;28;20047;-78
2021/07/04 06:28:30;;;;;;;2.67;1.55;;;19.30;85.50;;;;;;5094858;28;20124;-78
2021/07/04 06:30:55;;;;;;;2.17;1.30;;;19.40;85.40;;;;;;5076138;28;20040;-78
2021/07/04 06:33:21;;;;;;;2.92;1.77;;;19.40;85.10;;;;;;5094684;28;20055;-78
2021/07/04 06:35:47;;;;;;;2.83;2.00;;;19.50;85.00;;;;;;5094556;28;20036;-78
2021/07/04 06:38:12;;;;;;;2.88;1.88;;;19.50;84.90;;;;;;5076336;28;20044;-77
2021/07/04 06:40:38;;;;;;;3.65;2.10;;;19.50;85.00;;;;;;5076603;28;20047;-77
2021/07/04 06:43:04;;;;;;;3.28;1.98;;;19.50;85.00;;;;;;5094412;28;20035;-77
2021/07/04 06:45:29;;;;;;;1.92;1.50;;;19.50;85.10;;;;;;5075919;28;20881;-78
2021/07/04 06:47:55;;;;;;;3.58;2.10;;;19.40;85.80;;;;;;5094572;28;20040;-78
2021/07/04 06:50:21;;;;;;;2.90;1.80;;;19.40;85.30;;;;;;5076150;28;20047;-78
2021/07/04 06:52:49;;;;;;;3.47;2.03;;;19.40;85.30;;;;;;5060374;28;20573;-78
2021/07/04 06:55:15;;;;;;;2.67;1.80;;;19.40;85.50;;;;;;5076397;28;20062;-78
2021/07/04 06:57:41;;;;;;;2.78;1.90;;;19.30;85.60;;;;;;5076851;28;20068;-78
2021/07/04 07:00:10;;;;;;;4.13;2.13;;;19.30;85.70;;;;;;5075942;28;20082;-78
2021/07/04 07:02:37;;;;;;;3.90;2.40;;;19.30;85.80;;;;;;5093999;28;20119;-78
2021/07/04 07:05:05;;;;;;;4.85;3.00;;;19.30;85.90;;;;;;5076226;28;20050;-78
2021/07/04 07:07:30;;;;;;;4.60;2.88;;;19.30;85.80;;;;;;5093664;28;20044;-78
2021/07/04 07:09:56;;;;;;;4.20;2.60;;;19.40;85.80;;;;;;5093498;28;20486;-78
2021/07/04 07:12:22;;;;;;;5.05;3.03;;;19.40;85.70;;;;;;5094012;28;20423;-78
2021/07/04 07:14:48;;;;;;;4.70;2.80;;;19.40;85.60;;;;;;5093552;28;20048;-78
2021/07/04 07:17:13;;;;;;;4.53;2.72;;;19.40;85.50;;;;;;5042020;28;20055;-79
2021/07/04 07:19:39;;;;;;;3.95;2.67;;;19.50;85.60;;;;;;5093296;28;20058;-78
2021/07/04 07:22:05;;;;;;;3.55;2.38;;;19.40;85.70;;;;;;5093829;28;20090;-78
2021/07/04 07:24:30;;;;;;;5.07;3.25;;;19.50;85.70;;;;;;5075973;28;20036;-78
2021/07/04 07:26:57;;;;;;;3.65;2.22;;;19.50;85.60;;;;;;5075284;28;20036;-78
2021/07/04 07:29:22;;;;;;;6.45;3.45;;;19.60;85.50;;;;;;5075494;28;20401;-77
2021/07/04 07:31:49;;;;;;;7.05;4.72;;;19.70;85.20;;;;;;5041696;28;20048;-76
2021/07/04 07:34:14;;;;;;;5.80;3.80;;;19.80;84.80;;;;;;5041960;28;20371;-77
2021/07/04 07:36:40;;;;;;;4.03;2.85;;;19.80;84.60;;;;;;5093091;28;20051;-77
2021/07/04 07:39:07;;;;;;;5.57;3.67;;;19.80;84.70;;;;;;5075054;28;20482;-77
2021/07/04 07:41:32;;;;;;;4.63;2.83;;;19.70;84.90;;;;;;5075031;28;20044;-77
2021/07/04 07:43:58;;;;;;;3.30;2.30;;;19.70;85.10;;;;;;5074894;28;20081;-77
2021/07/04 07:46:24;;;;;;;3.38;2.28;;;19.70;85.10;;;;;;5075543;28;20435;-77
2021/07/04 07:48:50;;;;;;;4.38;2.90;;;19.70;85.20;;;;;;5075199;28;20533;-77
2021/07/04 07:51:16;;;;;;;4.32;2.78;;;19.70;85.30;;;;;;5058172;28;20036;-77
2021/07/04 07:53:42;;;;;;;4.03;2.83;;;19.80;85.40;;;;;;5075428;28;20489;-77
2021/07/04 07:56:08;;;;;;;5.45;3.33;;;19.80;85.30;;;;;;5074719;28;20078;-78
2021/07/04 07:58:34;;;;;;;4.75;2.92;;;19.80;85.10;;;;;;5093504;28;20465;-78
2021/07/04 08:00:59;;;;;;;4.43;2.90;;;19.80;85.00;;;;;;5093559;28;20124;-77
2021/07/04 08:03:25;;;;;;;5.00;2.95;;;19.90;85.10;;;;;;5074899;28;20093;-79
2021/07/04 08:05:51;;;;;;;5.80;3.17;;;19.90;85.10;;;;;;5093267;28;20481;-78
2021/07/04 08:08:16;;;;;;;4.80;2.65;;;19.90;85.10;;;;;;5095617;28;20040;-78
2021/07/04 08:10:42;;;;;;;4.88;3.20;;;19.90;85.20;;;;;;5081128;28;20043;-78
2021/07/04 08:13:08;;;;;;;5.50;3.55;;;19.90;85.00;;;;;;5079006;28;20048;-78
2021/07/04 08:15:34;;;;;;;5.10;3.45;;;20.00;85.10;;;;;;5078781;28;20040;-78
2021/07/04 08:17:59;;;;;;;4.20;2.80;;;20.00;84.90;;;;;;5098405;28;20040;-79
2021/07/04 08:20:26;;;;;;;4.25;2.67;;;20.20;84.70;;;;;;5101416;28;20036;-79
2021/07/04 08:22:51;;;;;;;5.07;3.30;;;20.30;84.60;;;;;;5080763;28;20039;-79
2021/07/04 08:25:18;;;;;;;4.07;2.85;;;20.60;84.90;;;;;;5062430;28;20044;-79
2021/07/04 08:27:44;;;;;;;5.30;3.53;;;20.80;83.80;;;;;;5087339;28;20142;-78
2021/07/04 08:30:12;;;;;;;5.13;3.42;;;21.10;83.00;;;;;;5064786;28;20585;-79
2021/07/04 08:32:37;;;;;;;5.13;3.50;;;21.30;82.50;;;;;;5081304;28;20051;-79
2021/07/04 08:35:05;;;;;;;4.68;2.92;;;21.30;82.20;;;;;;5082569;28;20044;-79
2021/07/04 08:37:30;;;;;;;4.78;3.38;;;21.50;82.10;;;;;;5098028;28;20048;-79
2021/07/04 08:39:56;;;;;;;4.40;3.00;;;21.60;81.90;;;;;;5094039;28;20054;-79
2021/07/04 08:42:22;;;;;;;4.40;2.97;;;21.60;81.80;;;;;;5062119;28;20039;-79
2021/07/04 08:44:52;;;;;;;4.55;2.80;;;21.80;81.90;;;;;;5059997;28;20513;-78
2021/07/04 08:47:19;;;;;;;4.30;2.97;;;22.00;81.70;;;;;;5075583;28;20040;-79
2021/07/04 08:49:46;;;;;;;3.83;2.65;;;22.20;81.20;;;;;;5075486;28;20132;-79
2021/07/04 08:52:12;;;;;;;3.20;2.22;;;22.30;80.90;;;;;;5096135;28;20060;-79
2021/07/04 08:54:39;;;;;;;3.83;2.70;;;22.40;80.80;;;;;;5099291;28;20082;-77
2021/07/04 08:57:08;;;;;;;5.20;3.33;;;22.40;80.60;;;;;;5076274;28;20047;-79
2021/07/04 08:59:38;;;;;;;5.60;3.55;;;22.30;81.00;;;;;;5093261;28;20493;-80
2021/07/04 09:02:04;;;;;;;5.80;3.97;;;22.30;81.20;;;;;;5075190;28;20047;-79
2021/07/04 09:04:30;;;;;;;4.70;3.15;;;22.20;81.20;;;;;;5077986;28;20185;-79
2021/07/04 09:06:56;;;;;;;4.55;3.30;;;22.20;81.20;;;;;;5058415;28;20063;-79
2021/07/04 09:09:25;;;;;;;4.22;2.80;;;22.20;81.50;;;;;;5075801;28;20040;-79
2021/07/04 09:11:55;;;;;;;4.93;3.13;;;22.20;81.50;;;;;;5076941;28;20040;-80
2021/07/04 09:14:29;;;;;;;5.18;3.35;;;22.20;81.70;;;;;;5083307;28;20040;-78
2021/07/04 09:16:55;;;;;;;4.60;3.05;;;22.40;81.50;;;;;;5099472;28;20054;-79
2021/07/04 09:19:21;;;;;;;4.57;3.08;;;22.60;81.00;;;;;;5082140;28;20515;-78
2021/07/04 09:22:06;;;;;;;4.57;3.08;;;22.80;80.40;;;;;;5073728;28;20044;-78
2021/07/04 09:24:38;;;;;;;5.13;3.10;;;23.00;80.00;;;;;;5048098;28;20149;-78
2021/07/04 09:27:05;;;;;;;5.53;3.13;;;23.10;79.60;;;;;;5076350;28;20091;-78
2021/07/04 09:29:41;;;;;;;3.97;2.60;;;23.30;79.20;;;;;;5078221;28;20139;-80
2021/07/04 09:32:18;;;;;;;4.35;2.80;;;23.50;78.90;;;;;;5094939;28;20489;-78
2021/07/04 09:35:12;;;;;;;4.75;3.05;;;23.60;78.60;;;;;;5091635;28;20047;-78
2021/07/04 09:37:40;;;;;;;4.28;3.03;;;23.70;78.40;;;;;;5075452;28;20044;-77
2021/07/04 09:40:11;;;;;;;4.13;2.95;;;23.90;78.10;;;;;;5095998;28;20047;-77
2021/07/04 09:43:15;;;;;;;3.88;2.67;;;24.00;77.90;;;;;;5094946;28;20044;-79
2021/07/04 09:45:48;;;;;;;4.00;2.65;;;24.10;78.00;;;;;;5097669;28;20393;-78
2021/07/04 09:48:16;;;;;;;4.00;2.78;;;24.10;77.90;;;;;;5062439;28;20051;-79
2021/07/04 09:50:45;;;;;;;4.32;3.03;;;24.10;78.00;;;;;;5096496;28;20153;-78
2021/07/04 09:53:10;;;;;;;3.80;2.65;;;24.10;77.70;;;;;;5084742;28;20047;-78
2021/07/04 09:55:37;;;;;;;3.30;2.30;;;24.10;78.10;;;;;;5078097;28;20047;-78
2021/07/04 09:58:05;;;;;;;3.70;2.75;;;24.10;77.90;;;;;;5077932;28;20075;-77
2021/07/04 10:00:34;;;;;;;3.05;2.33;;;24.30;77.80;;;;;;5095885;28;20069;-79
2021/07/04 10:03:07;;;;;;;3.75;2.30;;;24.30;77.80;;;;;;5045588;28;20048;-78
2021/07/04 10:05:33;;;;;;;3.55;2.58;;;24.20;77.60;;;;;;5060714;28;20092;-79
2021/07/04 10:07:58;;;;;;;3.50;2.58;;;24.10;78.00;;;;;;5081677;28;20107;-79
2021/07/04 10:10:24;;;;;;;3.83;2.65;;;24.10;78.40;;;;;;5103745;28;20101;-79
